sensor_id;sensor_type;location;lat;lon;timestamp;temperature;humidity
35682;DHT22;21805;51.022;4.782;2022-09-09T00:00:08;16.90;99.90
35682;DHT22;21805;51.022;4.782;2022-09-09T00:02:37;16.90;99.90
35682;DHT22;21805;51.022;4.782;2022-09-09T00:07:52;16.90;99.90
35682;DHT22;21805;51.022;4.782;2022-09-09T00:13:02;16.90;99.90
35682;DHT22;21805;51.022;4.782;2022-09-09T00:15:47;16.90;99.90
35682;DHT22;21805;51.022;4.782;2022-09-09T00:18:24;17.00;99.90
35682;DHT22;21805;51.022;4.782;2022-09-09T00:20:56;17.00;99.90
35682;DHT22;21805;51.022;4.782;2022-09-09T00:23:37;16.90;99.90
35682;DHT22;21805;51.022;4.782;2022-09-09T00:28:38;17.00;99.90
35682;DHT22;21805;51.022;4.782;2022-09-09T00:31:10;16.90;99.90
35682;DHT22;21805;51.022;4.782;2022-09-09T00:33:36;16.90;99.90
35682;DHT22;21805;51.022;4.782;2022-09-09T00:36:04;16.90;99.90
35682;DHT22;21805;51.022;4.782;2022-09-09T00:38:35;16.90;99.90
35682;DHT22;21805;51.022;4.782;2022-09-09T00:44:00;16.80;99.90
35682;DHT22;21805;51.022;4.782;2022-09-09T00:46:33;16.80;99.90
35682;DHT22;21805;51.022;4.782;2022-09-09T00:54:33;16.80;99.90
35682;DHT22;21805;51.022;4.782;2022-09-09T00:57:22;16.80;99.90
35682;DHT22;21805;51.022;4.782;2022-09-09T00:59:52;16.80;99.90
35682;DHT22;21805;51.022;4.782;2022-09-09T01:04:48;16.80;99.90
35682;DHT22;21805;51.022;4.782;2022-09-09T01:07:16;16.80;99.90
35682;DHT22;21805;51.022;4.782;2022-09-09T01:12:16;16.70;99.90
35682;DHT22;21805;51.022;4.782;2022-09-09T01:14:43;16.70;99.90
35682;DHT22;21805;51.022;4.782;2022-09-09T01:27:33;16.70;99.90
35682;DHT22;21805;51.022;4.782;2022-09-09T01:30:00;16.80;99.90
35682;DHT22;21805;51.022;4.782;2022-09-09T01:32:44;16.80;99.90
35682;DHT22;21805;51.022;4.782;2022-09-09T01:37:55;16.70;99.90
35682;DHT22;21805;51.022;4.782;2022-09-09T01:40:22;16.70;99.90
35682;DHT22;21805;51.022;4.782;2022-09-09T01:42:48;16.60;99.90
35682;DHT22;21805;51.022;4.782;2022-09-09T01:45:13;16.60;99.90
35682;DHT22;21805;51.022;4.782;2022-09-09T01:47:40;16.70;99.90
35682;DHT22;21805;51.022;4.782;2022-09-09T01:50:10;16.60;99.90
35682;DHT22;21805;51.022;4.782;2022-09-09T01:52:37;16.60;99.90
35682;DHT22;21805;51.022;4.782;2022-09-09T01:55:03;16.70;99.90
35682;DHT22;21805;51.022;4.782;2022-09-09T02:00:14;16.80;99.90
35682;DHT22;21805;51.022;4.782;2022-09-09T02:05:10;16.70;99.90
35682;DHT22;21805;51.022;4.782;2022-09-09T02:07:47;16.60;99.90
35682;DHT22;21805;51.022;4.782;2022-09-09T02:13:16;16.80;99.90
35682;DHT22;21805;51.022;4.782;2022-09-09T02:18:08;16.80;99.90
35682;DHT22;21805;51.022;4.782;2022-09-09T02:20:39;16.70;99.90
35682;DHT22;21805;51.022;4.782;2022-09-09T02:25:38;16.70;99.90
35682;DHT22;21805;51.022;4.782;2022-09-09T02:28:06;16.70;99.90
35682;DHT22;21805;51.022;4.782;2022-09-09T02:30:33;16.70;99.90
35682;DHT22;21805;51.022;4.782;2022-09-09T02:33:03;16.70;99.90
35682;DHT22;21805;51.022;4.782;2022-09-09T02:35:32;16.60;99.90
35682;DHT22;21805;51.022;4.782;2022-09-09T02:38:07;16.60;99.90
35682;DHT22;21805;51.022;4.782;2022-09-09T02:40:33;16.50;99.90
35682;DHT22;21805;51.022;4.782;2022-09-09T02:42:59;16.60;99.90
35682;DHT22;21805;51.022;4.782;2022-09-09T02:45:41;16.50;99.90
35682;DHT22;21805;51.022;4.782;2022-09-09T02:50:41;16.40;99.90
35682;DHT22;21805;51.022;4.782;2022-09-09T02:58:16;16.60;99.90
35682;DHT22;21805;51.022;4.782;2022-09-09T03:00:48;16.60;99.90
35682;DHT22;21805;51.022;4.782;2022-09-09T03:05:43;16.60;99.90
35682;DHT22;21805;51.022;4.782;2022-09-09T03:08:08;16.60;99.90
35682;DHT22;21805;51.022;4.782;2022-09-09T03:10:34;16.60;99.90
35682;DHT22;21805;51.022;4.782;2022-09-09T03:13:00;16.50;99.90
35682;DHT22;21805;51.022;4.782;2022-09-09T03:15:26;16.50;99.90
35682;DHT22;21805;51.022;4.782;2022-09-09T03:17:55;16.60;99.90
35682;DHT22;21805;51.022;4.782;2022-09-09T03:20:23;16.60;99.90
35682;DHT22;21805;51.022;4.782;2022-09-09T03:22:48;16.60;99.90
35682;DHT22;21805;51.022;4.782;2022-09-09T03:25:14;16.50;99.90
35682;DHT22;21805;51.022;4.782;2022-09-09T03:27:40;16.60;99.90
35682;DHT22;21805;51.022;4.782;2022-09-09T03:30:08;16.60;99.90
35682;DHT22;21805;51.022;4.782;2022-09-09T03:32:36;16.60;99.90
35682;DHT22;21805;51.022;4.782;2022-09-09T03:35:02;16.60;99.90
35682;DHT22;21805;51.022;4.782;2022-09-09T03:37:29;16.50;99.90
35682;DHT22;21805;51.022;4.782;2022-09-09T03:39:55;16.60;99.90
35682;DHT22;21805;51.022;4.782;2022-09-09T03:42:21;16.60;99.90
35682;DHT22;21805;51.022;4.782;2022-09-09T03:44:47;16.60;99.90
35682;DHT22;21805;51.022;4.782;2022-09-09T03:47:17;16.60;99.90
35682;DHT22;21805;51.022;4.782;2022-09-09T03:49:43;16.60;99.90
35682;DHT22;21805;51.022;4.782;2022-09-09T03:52:09;16.60;99.90
35682;DHT22;21805;51.022;4.782;2022-09-09T03:54:34;16.50;99.90
35682;DHT22;21805;51.022;4.782;2022-09-09T03:57:01;16.50;99.90
35682;DHT22;21805;51.022;4.782;2022-09-09T03:59:26;16.50;99.90
35682;DHT22;21805;51.022;4.782;2022-09-09T04:01:52;16.50;99.90
35682;DHT22;21805;51.022;4.782;2022-09-09T04:04:18;16.50;99.90
35682;DHT22;21805;51.022;4.782;2022-09-09T04:06:45;16.60;99.90
35682;DHT22;21805;51.022;4.782;2022-09-09T04:09:11;16.60;99.90
35682;DHT22;21805;51.022;4.782;2022-09-09T04:11:36;16.60;99.90
35682;DHT22;21805;51.022;4.782;2022-09-09T04:14:02;16.50;99.90
35682;DHT22;21805;51.022;4.782;2022-09-09T04:16:28;16.50;99.90
35682;DHT22;21805;51.022;4.782;2022-09-09T04:18:53;16.40;99.90
35682;DHT22;21805;51.022;4.782;2022-09-09T04:21:19;16.40;99.90
35682;DHT22;21805;51.022;4.782;2022-09-09T04:23:45;16.40;99.90
35682;DHT22;21805;51.022;4.782;2022-09-09T04:26:11;16.50;99.90
35682;DHT22;21805;51.022;4.782;2022-09-09T04:28:37;16.60;99.90
35682;DHT22;21805;51.022;4.782;2022-09-09T04:31:04;16.60;99.90
35682;DHT22;21805;51.022;4.782;2022-09-09T04:33:30;16.60;99.90
35682;DHT22;21805;51.022;4.782;2022-09-09T04:35:57;16.50;99.90
35682;DHT22;21805;51.022;4.782;2022-09-09T04:38:22;16.50;99.90
35682;DHT22;21805;51.022;4.782;2022-09-09T04:40:49;16.40;99.90
35682;DHT22;21805;51.022;4.782;2022-09-09T04:43:14;16.50;99.90
35682;DHT22;21805;51.022;4.782;2022-09-09T04:45:41;16.40;99.90
35682;DHT22;21805;51.022;4.782;2022-09-09T04:48:06;16.40;99.90
35682;DHT22;21805;51.022;4.782;2022-09-09T04:50:32;16.40;99.90
35682;DHT22;21805;51.022;4.782;2022-09-09T04:53:01;16.40;99.90
35682;DHT22;21805;51.022;4.782;2022-09-09T04:55:27;16.40;99.90
35682;DHT22;21805;51.022;4.782;2022-09-09T04:57:52;16.50;99.90
35682;DHT22;21805;51.022;4.782;2022-09-09T05:00:19;16.40;99.90
35682;DHT22;21805;51.022;4.782;2022-09-09T05:05:43;16.50;99.90
35682;DHT22;21805;51.022;4.782;2022-09-09T05:08:10;16.40;99.90
35682;DHT22;21805;51.022;4.782;2022-09-09T05:10:36;16.40;99.90
35682;DHT22;21805;51.022;4.782;2022-09-09T05:13:02;16.40;99.90
35682;DHT22;21805;51.022;4.782;2022-09-09T05:15:28;16.40;99.90
35682;DHT22;21805;51.022;4.782;2022-09-09T05:17:57;16.40;99.90
35682;DHT22;21805;51.022;4.782;2022-09-09T05:20:24;16.30;99.90
35682;DHT22;21805;51.022;4.782;2022-09-09T05:22:52;16.40;99.90
35682;DHT22;21805;51.022;4.782;2022-09-09T05:25:21;16.40;99.90
35682;DHT22;21805;51.022;4.782;2022-09-09T05:27:47;16.30;99.90
35682;DHT22;21805;51.022;4.782;2022-09-09T05:30:13;16.30;99.90
35682;DHT22;21805;51.022;4.782;2022-09-09T05:32:39;16.40;99.90
35682;DHT22;21805;51.022;4.782;2022-09-09T05:35:08;16.40;99.90
35682;DHT22;21805;51.022;4.782;2022-09-09T05:37:34;16.40;99.90
35682;DHT22;21805;51.022;4.782;2022-09-09T05:40:00;16.30;99.90
35682;DHT22;21805;51.022;4.782;2022-09-09T05:42:29;16.40;99.90
35682;DHT22;21805;51.022;4.782;2022-09-09T05:44:55;16.40;99.90
35682;DHT22;21805;51.022;4.782;2022-09-09T05:47:21;16.50;99.90
35682;DHT22;21805;51.022;4.782;2022-09-09T05:49:47;16.50;99.90
35682;DHT22;21805;51.022;4.782;2022-09-09T05:52:12;16.70;99.90
35682;DHT22;21805;51.022;4.782;2022-09-09T05:54:40;16.80;99.90
35682;DHT22;21805;51.022;4.782;2022-09-09T05:57:06;16.90;99.90
35682;DHT22;21805;51.022;4.782;2022-09-09T05:59:32;17.00;99.90
35682;DHT22;21805;51.022;4.782;2022-09-09T06:01:58;17.00;99.90
35682;DHT22;21805;51.022;4.782;2022-09-09T06:04:23;17.10;99.90
35682;DHT22;21805;51.022;4.782;2022-09-09T06:06:50;17.20;99.90
35682;DHT22;21805;51.022;4.782;2022-09-09T06:09:15;17.30;99.90
35682;DHT22;21805;51.022;4.782;2022-09-09T06:11:42;17.40;99.90
35682;DHT22;21805;51.022;4.782;2022-09-09T06:14:08;17.60;99.90
35682;DHT22;21805;51.022;4.782;2022-09-09T06:16:34;17.70;99.90
35682;DHT22;21805;51.022;4.782;2022-09-09T06:19:03;17.70;99.90
35682;DHT22;21805;51.022;4.782;2022-09-09T06:21:32;17.70;99.90
35682;DHT22;21805;51.022;4.782;2022-09-09T06:23:58;17.60;99.90
35682;DHT22;21805;51.022;4.782;2022-09-09T06:26:31;17.60;99.90
35682;DHT22;21805;51.022;4.782;2022-09-09T06:28:58;17.50;99.90
35682;DHT22;21805;51.022;4.782;2022-09-09T06:31:28;17.50;99.90
35682;DHT22;21805;51.022;4.782;2022-09-09T06:33:59;17.40;99.90
35682;DHT22;21805;51.022;4.782;2022-09-09T06:36:26;17.40;99.90
35682;DHT22;21805;51.022;4.782;2022-09-09T06:38:52;17.30;99.90
35682;DHT22;21805;51.022;4.782;2022-09-09T06:41:21;17.40;99.90
35682;DHT22;21805;51.022;4.782;2022-09-09T06:43:48;17.50;99.90
35682;DHT22;21805;51.022;4.782;2022-09-09T06:46:20;17.60;99.90
35682;DHT22;21805;51.022;4.782;2022-09-09T06:48:52;17.60;99.90
35682;DHT22;21805;51.022;4.782;2022-09-09T06:51:21;17.60;99.90
35682;DHT22;21805;51.022;4.782;2022-09-09T06:53:49;17.50;99.90
35682;DHT22;21805;51.022;4.782;2022-09-09T06:59:05;17.30;99.90
35682;DHT22;21805;51.022;4.782;2022-09-09T07:01:33;17.40;99.90
35682;DHT22;21805;51.022;4.782;2022-09-09T07:03:59;17.50;99.90
35682;DHT22;21805;51.022;4.782;2022-09-09T07:06:26;17.60;99.90
35682;DHT22;21805;51.022;4.782;2022-09-09T07:08:55;17.70;99.90
35682;DHT22;21805;51.022;4.782;2022-09-09T07:11:22;17.70;99.90
35682;DHT22;21805;51.022;4.782;2022-09-09T07:13:49;17.70;99.90
35682;DHT22;21805;51.022;4.782;2022-09-09T07:16:15;17.70;99.90
35682;DHT22;21805;51.022;4.782;2022-09-09T07:18:42;17.70;99.90
35682;DHT22;21805;51.022;4.782;2022-09-09T07:21:11;17.70;99.90
35682;DHT22;21805;51.022;4.782;2022-09-09T07:23:38;17.60;99.90
35682;DHT22;21805;51.022;4.782;2022-09-09T07:26:08;17.60;99.90
35682;DHT22;21805;51.022;4.782;2022-09-09T07:28:34;17.70;99.90
35682;DHT22;21805;51.022;4.782;2022-09-09T07:31:00;17.70;99.90
35682;DHT22;21805;51.022;4.782;2022-09-09T07:33:31;17.70;99.90
35682;DHT22;21805;51.022;4.782;2022-09-09T07:36:07;17.70;99.90
35682;DHT22;21805;51.022;4.782;2022-09-09T07:38:40;17.70;99.90
35682;DHT22;21805;51.022;4.782;2022-09-09T07:41:10;17.70;99.90
35682;DHT22;21805;51.022;4.782;2022-09-09T07:43:38;17.70;99.90
35682;DHT22;21805;51.022;4.782;2022-09-09T07:46:04;17.70;99.90
35682;DHT22;21805;51.022;4.782;2022-09-09T07:48:31;17.70;99.90
35682;DHT22;21805;51.022;4.782;2022-09-09T07:51:08;17.80;99.90
35682;DHT22;21805;51.022;4.782;2022-09-09T07:53:38;17.90;99.90
35682;DHT22;21805;51.022;4.782;2022-09-09T07:56:08;17.90;99.90
35682;DHT22;21805;51.022;4.782;2022-09-09T07:58:35;18.00;99.90
35682;DHT22;21805;51.022;4.782;2022-09-09T08:01:05;17.90;99.90
35682;DHT22;21805;51.022;4.782;2022-09-09T08:03:31;18.00;99.90
35682;DHT22;21805;51.022;4.782;2022-09-09T08:05:59;18.00;99.90
35682;DHT22;21805;51.022;4.782;2022-09-09T08:08:26;18.10;99.90
35682;DHT22;21805;51.022;4.782;2022-09-09T08:10:52;18.10;99.90
35682;DHT22;21805;51.022;4.782;2022-09-09T08:13:18;18.10;99.90
35682;DHT22;21805;51.022;4.782;2022-09-09T08:15:43;18.20;99.90
35682;DHT22;21805;51.022;4.782;2022-09-09T08:18:09;18.20;99.90
35682;DHT22;21805;51.022;4.782;2022-09-09T08:20:35;18.20;99.90
35682;DHT22;21805;51.022;4.782;2022-09-09T08:23:01;18.30;99.90
35682;DHT22;21805;51.022;4.782;2022-09-09T08:25:27;18.40;99.90
35682;DHT22;21805;51.022;4.782;2022-09-09T08:27:53;18.40;99.90
35682;DHT22;21805;51.022;4.782;2022-09-09T08:30:18;18.40;99.90
35682;DHT22;21805;51.022;4.782;2022-09-09T08:32:44;18.40;99.90
35682;DHT22;21805;51.022;4.782;2022-09-09T08:35:10;18.50;99.90
35682;DHT22;21805;51.022;4.782;2022-09-09T08:37:36;18.50;99.90
35682;DHT22;21805;51.022;4.782;2022-09-09T08:40:02;18.40;99.90
35682;DHT22;21805;51.022;4.782;2022-09-09T08:42:30;18.50;99.90
35682;DHT22;21805;51.022;4.782;2022-09-09T08:50:05;18.60;99.90
35682;DHT22;21805;51.022;4.782;2022-09-09T08:55:12;18.70;99.90
35682;DHT22;21805;51.022;4.782;2022-09-09T08:57:40;18.60;99.90
35682;DHT22;21805;51.022;4.782;2022-09-09T09:00:09;18.60;99.90
35682;DHT22;21805;51.022;4.782;2022-09-09T09:05:28;18.60;99.90
35682;DHT22;21805;51.022;4.782;2022-09-09T09:12:58;18.60;99.90
35682;DHT22;21805;51.022;4.782;2022-09-09T09:15:30;18.60;99.90
35682;DHT22;21805;51.022;4.782;2022-09-09T09:17:56;18.60;99.90
35682;DHT22;21805;51.022;4.782;2022-09-09T09:20:28;18.50;99.90
35682;DHT22;21805;51.022;4.782;2022-09-09T09:23:02;18.50;99.90
35682;DHT22;21805;51.022;4.782;2022-09-09T09:25:35;18.60;99.90
35682;DHT22;21805;51.022;4.782;2022-09-09T09:30:58;18.50;99.90
35682;DHT22;21805;51.022;4.782;2022-09-09T09:33:32;18.40;99.90
35682;DHT22;21805;51.022;4.782;2022-09-09T09:35:58;18.30;99.90
35682;DHT22;21805;51.022;4.782;2022-09-09T09:38:25;18.30;99.90
35682;DHT22;21805;51.022;4.782;2022-09-09T09:40:57;18.40;99.90
35682;DHT22;21805;51.022;4.782;2022-09-09T09:43:33;18.40;99.90
35682;DHT22;21805;51.022;4.782;2022-09-09T09:45:59;18.40;99.90
35682;DHT22;21805;51.022;4.782;2022-09-09T09:48:25;18.40;99.90
35682;DHT22;21805;51.022;4.782;2022-09-09T09:51:07;18.50;99.90
35682;DHT22;21805;51.022;4.782;2022-09-09T09:53:39;18.50;99.90
35682;DHT22;21805;51.022;4.782;2022-09-09T09:56:07;18.50;99.90
35682;DHT22;21805;51.022;4.782;2022-09-09T09:58:47;18.40;99.90
35682;DHT22;21805;51.022;4.782;2022-09-09T10:03:50;18.40;99.90
35682;DHT22;21805;51.022;4.782;2022-09-09T10:06:16;18.40;99.90
35682;DHT22;21805;51.022;4.782;2022-09-09T10:08:45;18.50;99.90
35682;DHT22;21805;51.022;4.782;2022-09-09T10:27:27;18.30;99.90
35682;DHT22;21805;51.022;4.782;2022-09-09T10:30:09;18.30;99.90
35682;DHT22;21805;51.022;4.782;2022-09-09T10:38:04;18.20;99.90
35682;DHT22;21805;51.022;4.782;2022-09-09T10:56:37;18.70;99.90
35682;DHT22;21805;51.022;4.782;2022-09-09T10:59:16;18.80;99.90
35682;DHT22;21805;51.022;4.782;2022-09-09T11:01:56;18.90;99.90
35682;DHT22;21805;51.022;4.782;2022-09-09T11:04:40;19.10;99.90
